Terminal Aerodrome Forecast
Issued by NWS

Home | Current Version | Previous Version | Text Only | Print | Product List | Glossary On
Versions: 1 2 3 4 5 6 7 8 9 10 11 12 13 14 15 16 17 18 19 20 21 22 23 24 25 26 27 28 29 30
000
FTUS41 KOKX 270934 AAC
TAFGON
TAF AMD
KGON 270934Z 2710/2806 05012KT P6SM BKN150
     FM271100 06015G21KT P6SM BKN015
     FM271300 06015KT 5SM -RA OVC015
     FM271500 06015KT 5SM -RA OVC009
     FM272300 06014KT 5SM BR VCSH OVC009
     FM280500 03012KT 5SM BR VCSH OVC006=

USA.gov is the U.S. government's official web portal to all federal, state and local government web resources and services.